John H. — WAC6768 — position and weather

sailwx.info

Track history (hours):
 
Tides and Currents Weather Stations Pressure Air Temp Water Temp Dewpoint Dewpoint Depression Visibility Wind Speed Wind Dir Waves Ship Positions

John H.

Owner: CROSS SOUND FERRY SERVICE INC, NEW LOUDON, CT. More information available from US FCC via Universal Licensing System and Coast Guard Vessel Documentation Center.

Last reported at 2016-Apr-18 00:18 UTC. Time now 2016-May-03 16:19 UTC.
Position N 41°21' W 072°05'.
Warning: this ship's position is 15 days out of date.

Length 70 m.

Type: Passenger vessel. MMSI: 366934890.

Date/timePositionNaut miles runAvg speedWind from/ knotsBaromVisibWave heightAir tempDewpointWater temp
2016-Apr-18 00:18N 41°21' W 072°05'911.4
2016-Apr-17 23:29N 41°13' W 072°11'3 2.4
2016-Apr-17 22:09N 41°10' W 072°13'10 4.8
2016-Apr-17 20:03N 41°18' W 072°05'612.4
2016-Apr-17 19:32N 41°13' W 072°10'5 4.0
2016-Apr-17 18:19N 41°09' W 072°14'911.5
2016-Apr-17 17:32N 41°16' W 072°07'4 1.8
2016-Apr-17 15:32N 41°13' W 072°10'5 0.4
2016-Apr-17 00:12N 41°09' W 072°14'2 0.4
2016-Apr-16 17:25N 41°11' W 072°13'4 0.2
2016-Apr-15 23:33N 41°14' W 072°10'5 4.0
2016-Apr-15 22:15N 41°09' W 072°13'912.1
2016-Apr-15 21:32N 41°17' W 072°07'2 1.2
2016-Apr-15 20:04N 41°18' W 072°05'612.3
2016-Apr-15 19:33N 41°13' W 072°11'5 3.8
2016-Apr-15 18:16N 41°09' W 072°14'811.6
2016-Apr-15 17:33N 41°16' W 072°08'3 1.4
2016-Apr-15 15:33N 41°13' W 072°10'6 0.4
2016-Apr-15 00:20N 41°09' W 072°14'911.1
2016-Apr-14 23:33N 41°16' W 072°07'5 2.5
2016-Apr-14 21:23N 41°12' W 072°12'2 1.8
2016-Apr-14 20:11N 41°10' W 072°13'2 0.9
2016-Apr-14 17:27N 41°12' W 072°12'0 0.0
2016-Apr-13 23:27N 41°12' W 072°12'3 3.1
2016-Apr-13 22:21N 41°09' W 072°14'911.8
2016-Apr-13 21:32N 41°16' W 072°06'9 2.7
2016-Apr-13 18:13N 41°09' W 072°13'11 0.5
2016-Apr-12 22:05N 41°18' W 072°05'712.5
2016-Apr-12 21:33N 41°13' W 072°10'1 0.4
2016-Apr-12 17:27N 41°12' W 072°12'2 0.1
2016-Apr-11 23:33N 41°14' W 072°09'6 5.0
2016-Apr-11 22:24N 41°09' W 072°14'4 1.4
2016-Apr-11 19:28N 41°13' W 072°12'7 2.2
2016-Apr-11 16:10N 41°18' W 072°05'711.0
2016-Apr-11 15:32N 41°13' W 072°11'4 0.3
2016-Apr-11 01:33N 41°09' W 072°14'4 1.4
2016-Apr-10 22:33N 41°13' W 072°11'2 1.4
2016-Apr-10 21:08N 41°12' W 072°13'9 0.4
2016-Apr-10 00:04N 41°18' W 072°05'612.0
2016-Apr-09 23:33N 41°13' W 072°10'5 4.1
2016-Apr-09 22:19N 41°09' W 072°14'5 1.9
2016-Apr-09 19:33N 41°13' W 072°10'5 3.9
2016-Apr-09 18:17N 41°09' W 072°14'811.6
2016-Apr-09 17:33N 41°16' W 072°07'4 1.8
2016-Apr-09 15:33N 41°13' W 072°10'4 0.2
2016-Apr-09 00:06N 41°11' W 072°14'4 1.8
2016-Apr-08 21:34N 41°13' W 072°09'6 4.9
2016-Apr-08 20:23N 41°09' W 072°14'910.2
2016-Apr-08 19:30N 41°16' W 072°07'4 2.0
2016-Apr-08 17:33N 41°13' W 072°10'5 3.7
2016-Apr-08 16:14N 41°09' W 072°14'912.5
2016-Apr-08 15:33N 41°16' W 072°07'  
Track history (hours):
 
Tides and Currents Weather Stations Pressure Air Temp Water Temp Dewpoint Dewpoint Depression Visibility Wind Speed Wind Dir Waves Ship Positions

John H.

Owner: CROSS SOUND FERRY SERVICE INC, NEW LOUDON, CT. More information available from US FCC via Universal Licensing System and Coast Guard Vessel Documentation Center.

Last reported at 2016-Apr-18 00:18 UTC. Time now 2016-May-03 16:19 UTC.
Position N 41°21' W 072°05'.
Warning: this ship's position is 15 days out of date.

Length 70 m.

Type: Passenger vessel. MMSI: 366934890.

Date/timePositionNaut miles runAvg speedWind from/ knotsBaromVisibWave heightAir tempDewpointWater temp
2016-Apr-18 00:18N 41°21' W 072°05'911.4
2016-Apr-17 23:29N 41°13' W 072°11'3 2.4
2016-Apr-17 22:09N 41°10' W 072°13'10 4.8
2016-Apr-17 20:03N 41°18' W 072°05'612.4
2016-Apr-17 19:32N 41°13' W 072°10'5 4.0
2016-Apr-17 18:19N 41°09' W 072°14'911.5
2016-Apr-17 17:32N 41°16' W 072°07'4 1.8
2016-Apr-17 15:32N 41°13' W 072°10'5 0.4
2016-Apr-17 00:12N 41°09' W 072°14'2 0.4
2016-Apr-16 17:25N 41°11' W 072°13'4 0.2
2016-Apr-15 23:33N 41°14' W 072°10'5 4.0
2016-Apr-15 22:15N 41°09' W 072°13'912.1
2016-Apr-15 21:32N 41°17' W 072°07'2 1.2
2016-Apr-15 20:04N 41°18' W 072°05'612.3
2016-Apr-15 19:33N 41°13' W 072°11'5 3.8
2016-Apr-15 18:16N 41°09' W 072°14'811.6
2016-Apr-15 17:33N 41°16' W 072°08'3 1.4
2016-Apr-15 15:33N 41°13' W 072°10'6 0.4
2016-Apr-15 00:20N 41°09' W 072°14'911.1
2016-Apr-14 23:33N 41°16' W 072°07'5 2.5
2016-Apr-14 21:23N 41°12' W 072°12'2 1.8
2016-Apr-14 20:11N 41°10' W 072°13'2 0.9
2016-Apr-14 17:27N 41°12' W 072°12'0 0.0
2016-Apr-13 23:27N 41°12' W 072°12'3 3.1
2016-Apr-13 22:21N 41°09' W 072°14'911.8
2016-Apr-13 21:32N 41°16' W 072°06'9 2.7
2016-Apr-13 18:13N 41°09' W 072°13'11 0.5
2016-Apr-12 22:05N 41°18' W 072°05'712.5
2016-Apr-12 21:33N 41°13' W 072°10'1 0.4
2016-Apr-12 17:27N 41°12' W 072°12'2 0.1
2016-Apr-11 23:33N 41°14' W 072°09'6 5.0
2016-Apr-11 22:24N 41°09' W 072°14'4 1.4
2016-Apr-11 19:28N 41°13' W 072°12'7 2.2
2016-Apr-11 16:10N 41°18' W 072°05'711.0
2016-Apr-11 15:32N 41°13' W 072°11'4 0.3
2016-Apr-11 01:33N 41°09' W 072°14'4 1.4
2016-Apr-10 22:33N 41°13' W 072°11'2 1.4
2016-Apr-10 21:08N 41°12' W 072°13'9 0.4
2016-Apr-10 00:04N 41°18' W 072°05'612.0
2016-Apr-09 23:33N 41°13' W 072°10'5 4.1
2016-Apr-09 22:19N 41°09' W 072°14'5 1.9
2016-Apr-09 19:33N 41°13' W 072°10'5 3.9
2016-Apr-09 18:17N 41°09' W 072°14'811.6
2016-Apr-09 17:33N 41°16' W 072°07'4 1.8
2016-Apr-09 15:33N 41°13' W 072°10'4 0.2
2016-Apr-09 00:06N 41°11' W 072°14'4 1.8
2016-Apr-08 21:34N 41°13' W 072°09'6 4.9
2016-Apr-08 20:23N 41°09' W 072°14'910.2
2016-Apr-08 19:30N 41°16' W 072°07'4 2.0
2016-Apr-08 17:33N 41°13' W 072°10'5 3.7
2016-Apr-08 16:14N 41°09' W 072°14'912.5
2016-Apr-08 15:33N 41°16' W 072°07'  

Dump ship's entire track history